sensor_id;sensor_type;location;lat;lon;timestamp;temperature;humidity
28484;DHT22;15704;48.834;8.736;2023-09-12T00:00:50;19.60;99.90
28484;DHT22;15704;48.834;8.736;2023-09-12T00:03:21;19.60;99.90
28484;DHT22;15704;48.834;8.736;2023-09-12T00:05:56;19.60;99.90
28484;DHT22;15704;48.834;8.736;2023-09-12T00:08:24;19.60;99.90
28484;DHT22;15704;48.834;8.736;2023-09-12T00:13:26;19.60;99.90
28484;DHT22;15704;48.834;8.736;2023-09-12T00:15:53;19.60;99.90
28484;DHT22;15704;48.834;8.736;2023-09-12T00:18:20;19.60;99.90
28484;DHT22;15704;48.834;8.736;2023-09-12T00:20:47;19.60;99.90
28484;DHT22;15704;48.834;8.736;2023-09-12T00:23:14;19.60;99.90
28484;DHT22;15704;48.834;8.736;2023-09-12T00:25:41;19.60;99.90
28484;DHT22;15704;48.834;8.736;2023-09-12T00:28:08;19.60;99.90
28484;DHT22;15704;48.834;8.736;2023-09-12T00:30:35;19.60;99.90
28484;DHT22;15704;48.834;8.736;2023-09-12T00:33:02;19.60;99.90
28484;DHT22;15704;48.834;8.736;2023-09-12T00:35:29;19.60;99.90
28484;DHT22;15704;48.834;8.736;2023-09-12T00:37:56;19.60;99.90
28484;DHT22;15704;48.834;8.736;2023-09-12T00:40:23;19.60;99.90
28484;DHT22;15704;48.834;8.736;2023-09-12T00:42:49;19.60;99.90
28484;DHT22;15704;48.834;8.736;2023-09-12T00:45:16;19.60;99.90
28484;DHT22;15704;48.834;8.736;2023-09-12T00:47:43;19.60;99.90
28484;DHT22;15704;48.834;8.736;2023-09-12T00:50:11;19.60;99.90
28484;DHT22;15704;48.834;8.736;2023-09-12T00:52:38;19.50;99.90
28484;DHT22;15704;48.834;8.736;2023-09-12T00:55:06;19.50;99.90
28484;DHT22;15704;48.834;8.736;2023-09-12T00:57:34;19.50;99.90
28484;DHT22;15704;48.834;8.736;2023-09-12T01:00:05;19.50;99.90
28484;DHT22;15704;48.834;8.736;2023-09-12T01:02:41;19.50;99.90
28484;DHT22;15704;48.834;8.736;2023-09-12T01:05:10;19.50;99.90
28484;DHT22;15704;48.834;8.736;2023-09-12T01:07:38;19.40;99.90
28484;DHT22;15704;48.834;8.736;2023-09-12T01:10:05;19.40;99.90
28484;DHT22;15704;48.834;8.736;2023-09-12T01:12:32;19.40;99.90
28484;DHT22;15704;48.834;8.736;2023-09-12T01:15:00;19.30;99.90
28484;DHT22;15704;48.834;8.736;2023-09-12T01:17:27;19.30;99.90
28484;DHT22;15704;48.834;8.736;2023-09-12T01:19:55;19.30;99.90
28484;DHT22;15704;48.834;8.736;2023-09-12T01:27:28;19.30;99.90
28484;DHT22;15704;48.834;8.736;2023-09-12T01:30:01;19.30;99.90
28484;DHT22;15704;48.834;8.736;2023-09-12T01:32:32;19.30;99.90
28484;DHT22;15704;48.834;8.736;2023-09-12T01:34:59;19.30;99.90
28484;DHT22;15704;48.834;8.736;2023-09-12T01:37:26;19.30;99.90
28484;DHT22;15704;48.834;8.736;2023-09-12T01:39:53;19.30;99.90
28484;DHT22;15704;48.834;8.736;2023-09-12T01:42:21;19.30;99.90
28484;DHT22;15704;48.834;8.736;2023-09-12T01:44:56;19.30;99.90
28484;DHT22;15704;48.834;8.736;2023-09-12T01:47:24;19.30;99.90
28484;DHT22;15704;48.834;8.736;2023-09-12T01:49:55;19.30;99.90
28484;DHT22;15704;48.834;8.736;2023-09-12T01:52:25;19.30;99.90
28484;DHT22;15704;48.834;8.736;2023-09-12T01:54:54;19.30;99.90
28484;DHT22;15704;48.834;8.736;2023-09-12T01:57:22;19.30;99.90
28484;DHT22;15704;48.834;8.736;2023-09-12T01:59:50;19.30;99.90
28484;DHT22;15704;48.834;8.736;2023-09-12T02:02:18;19.30;99.90
28484;DHT22;15704;48.834;8.736;2023-09-12T02:07:35;19.30;99.90
28484;DHT22;15704;48.834;8.736;2023-09-12T02:10:03;19.30;99.90
28484;DHT22;15704;48.834;8.736;2023-09-12T02:12:31;19.30;99.90
28484;DHT22;15704;48.834;8.736;2023-09-12T02:14:58;19.40;99.90
28484;DHT22;15704;48.834;8.736;2023-09-12T02:17:25;19.30;99.90
28484;DHT22;15704;48.834;8.736;2023-09-12T02:19:52;19.40;99.90
28484;DHT22;15704;48.834;8.736;2023-09-12T02:22:19;19.30;99.90
28484;DHT22;15704;48.834;8.736;2023-09-12T02:24:46;19.40;99.90
28484;DHT22;15704;48.834;8.736;2023-09-12T02:27:13;19.40;99.90
28484;DHT22;15704;48.834;8.736;2023-09-12T02:29:41;19.40;99.90
28484;DHT22;15704;48.834;8.736;2023-09-12T02:32:09;19.40;99.90
28484;DHT22;15704;48.834;8.736;2023-09-12T02:34:35;19.50;99.90
28484;DHT22;15704;48.834;8.736;2023-09-12T02:37:02;19.50;99.90
28484;DHT22;15704;48.834;8.736;2023-09-12T02:39:29;19.50;99.90
28484;DHT22;15704;48.834;8.736;2023-09-12T02:41:56;19.50;99.90
28484;DHT22;15704;48.834;8.736;2023-09-12T02:44:23;19.60;99.90
28484;DHT22;15704;48.834;8.736;2023-09-12T02:46:50;19.70;99.90
28484;DHT22;15704;48.834;8.736;2023-09-12T02:49:17;19.70;99.90
28484;DHT22;15704;48.834;8.736;2023-09-12T02:51:45;19.70;99.90
28484;DHT22;15704;48.834;8.736;2023-09-12T02:54:12;19.70;99.90
28484;DHT22;15704;48.834;8.736;2023-09-12T02:56:39;19.60;99.90
28484;DHT22;15704;48.834;8.736;2023-09-12T02:59:06;19.60;99.90
28484;DHT22;15704;48.834;8.736;2023-09-12T03:01:32;19.50;99.90
28484;DHT22;15704;48.834;8.736;2023-09-12T03:04:00;19.50;99.90
28484;DHT22;15704;48.834;8.736;2023-09-12T03:06:28;19.60;99.90
28484;DHT22;15704;48.834;8.736;2023-09-12T03:08:55;19.60;99.90
28484;DHT22;15704;48.834;8.736;2023-09-12T03:11:22;19.70;99.90
28484;DHT22;15704;48.834;8.736;2023-09-12T03:13:49;19.60;99.90
28484;DHT22;15704;48.834;8.736;2023-09-12T03:16:16;19.60;99.90
28484;DHT22;15704;48.834;8.736;2023-09-12T03:18:42;19.60;99.90
28484;DHT22;15704;48.834;8.736;2023-09-12T03:21:09;19.60;99.90
28484;DHT22;15704;48.834;8.736;2023-09-12T03:23:36;19.70;99.90
28484;DHT22;15704;48.834;8.736;2023-09-12T03:26:04;19.70;99.90
28484;DHT22;15704;48.834;8.736;2023-09-12T03:31:24;19.90;99.90
28484;DHT22;15704;48.834;8.736;2023-09-12T03:33:52;20.00;99.90
28484;DHT22;15704;48.834;8.736;2023-09-12T03:39:01;20.00;99.90
28484;DHT22;15704;48.834;8.736;2023-09-12T03:41:27;20.00;99.90
28484;DHT22;15704;48.834;8.736;2023-09-12T03:43:54;20.10;99.90
28484;DHT22;15704;48.834;8.736;2023-09-12T03:46:21;20.00;99.90
28484;DHT22;15704;48.834;8.736;2023-09-12T03:48:49;20.10;99.90
28484;DHT22;15704;48.834;8.736;2023-09-12T03:51:15;20.10;99.90
28484;DHT22;15704;48.834;8.736;2023-09-12T03:53:42;20.10;99.90
28484;DHT22;15704;48.834;8.736;2023-09-12T03:56:09;20.20;99.90
28484;DHT22;15704;48.834;8.736;2023-09-12T03:58:39;20.30;99.90
28484;DHT22;15704;48.834;8.736;2023-09-12T04:01:07;20.30;99.90
28484;DHT22;15704;48.834;8.736;2023-09-12T04:03:33;20.30;99.90
28484;DHT22;15704;48.834;8.736;2023-09-12T04:06:00;20.30;99.90
28484;DHT22;15704;48.834;8.736;2023-09-12T04:08:27;20.30;99.90
28484;DHT22;15704;48.834;8.736;2023-09-12T04:10:54;20.40;99.90
28484;DHT22;15704;48.834;8.736;2023-09-12T04:13:20;20.40;99.90
28484;DHT22;15704;48.834;8.736;2023-09-12T04:15:47;20.40;99.90
28484;DHT22;15704;48.834;8.736;2023-09-12T04:18:14;20.40;99.90
28484;DHT22;15704;48.834;8.736;2023-09-12T04:20:41;20.40;99.90
28484;DHT22;15704;48.834;8.736;2023-09-12T04:23:08;20.40;99.90
28484;DHT22;15704;48.834;8.736;2023-09-12T04:25:34;20.50;99.90
28484;DHT22;15704;48.834;8.736;2023-09-12T04:28:01;20.40;99.90
28484;DHT22;15704;48.834;8.736;2023-09-12T04:30:31;20.40;99.90
28484;DHT22;15704;48.834;8.736;2023-09-12T04:32:58;20.50;99.90
28484;DHT22;15704;48.834;8.736;2023-09-12T04:35:27;20.50;99.90
28484;DHT22;15704;48.834;8.736;2023-09-12T04:37:54;20.40;99.90
28484;DHT22;15704;48.834;8.736;2023-09-12T04:40:21;20.40;99.90
28484;DHT22;15704;48.834;8.736;2023-09-12T04:42:47;20.30;99.90
28484;DHT22;15704;48.834;8.736;2023-09-12T04:45:14;20.30;99.90
28484;DHT22;15704;48.834;8.736;2023-09-12T04:47:41;20.30;99.90
28484;DHT22;15704;48.834;8.736;2023-09-12T04:50:08;20.20;99.90
28484;DHT22;15704;48.834;8.736;2023-09-12T04:52:35;20.20;99.90
28484;DHT22;15704;48.834;8.736;2023-09-12T04:55:02;20.10;99.90
28484;DHT22;15704;48.834;8.736;2023-09-12T04:57:30;20.10;99.90
28484;DHT22;15704;48.834;8.736;2023-09-12T04:59:58;20.10;99.90
28484;DHT22;15704;48.834;8.736;2023-09-12T05:02:27;20.00;99.90
28484;DHT22;15704;48.834;8.736;2023-09-12T05:04:54;20.00;99.90
28484;DHT22;15704;48.834;8.736;2023-09-12T05:07:23;20.00;99.90
28484;DHT22;15704;48.834;8.736;2023-09-12T05:09:50;19.80;99.90
28484;DHT22;15704;48.834;8.736;2023-09-12T05:12:17;19.80;99.90
28484;DHT22;15704;48.834;8.736;2023-09-12T05:14:44;19.70;99.90
28484;DHT22;15704;48.834;8.736;2023-09-12T05:17:11;19.70;99.90
28484;DHT22;15704;48.834;8.736;2023-09-12T05:19:37;19.80;99.90
28484;DHT22;15704;48.834;8.736;2023-09-12T05:22:04;19.70;99.90
28484;DHT22;15704;48.834;8.736;2023-09-12T05:24:31;19.80;99.90
28484;DHT22;15704;48.834;8.736;2023-09-12T05:26:57;19.80;99.90
28484;DHT22;15704;48.834;8.736;2023-09-12T05:29:24;19.80;99.90
28484;DHT22;15704;48.834;8.736;2023-09-12T05:31:51;19.90;99.90
28484;DHT22;15704;48.834;8.736;2023-09-12T05:34:18;20.00;99.90
28484;DHT22;15704;48.834;8.736;2023-09-12T05:36:45;20.10;99.90
28484;DHT22;15704;48.834;8.736;2023-09-12T05:39:12;20.20;99.90
28484;DHT22;15704;48.834;8.736;2023-09-12T05:41:40;20.20;99.90
28484;DHT22;15704;48.834;8.736;2023-09-12T05:44:07;20.30;99.90
28484;DHT22;15704;48.834;8.736;2023-09-12T05:46:34;20.40;99.90
28484;DHT22;15704;48.834;8.736;2023-09-12T05:49:01;20.50;99.90
28484;DHT22;15704;48.834;8.736;2023-09-12T05:51:27;20.50;99.90
28484;DHT22;15704;48.834;8.736;2023-09-12T05:53:54;20.60;99.90
28484;DHT22;15704;48.834;8.736;2023-09-12T05:56:21;20.60;99.90
28484;DHT22;15704;48.834;8.736;2023-09-12T05:58:47;20.70;99.90
28484;DHT22;15704;48.834;8.736;2023-09-12T06:01:16;20.80;99.90
28484;DHT22;15704;48.834;8.736;2023-09-12T06:03:44;20.90;99.90
28484;DHT22;15704;48.834;8.736;2023-09-12T06:06:11;21.00;99.90
28484;DHT22;15704;48.834;8.736;2023-09-12T06:08:38;21.10;99.90
28484;DHT22;15704;48.834;8.736;2023-09-12T06:11:05;21.10;99.90
28484;DHT22;15704;48.834;8.736;2023-09-12T06:13:32;21.10;99.90
28484;DHT22;15704;48.834;8.736;2023-09-12T06:15:59;21.20;99.90
28484;DHT22;15704;48.834;8.736;2023-09-12T06:18:26;21.20;99.90
28484;DHT22;15704;48.834;8.736;2023-09-12T06:20:57;21.20;99.90
28484;DHT22;15704;48.834;8.736;2023-09-12T06:23:24;21.30;99.90
28484;DHT22;15704;48.834;8.736;2023-09-12T06:25:50;21.30;99.90
28484;DHT22;15704;48.834;8.736;2023-09-12T06:28:28;21.30;99.90
28484;DHT22;15704;48.834;8.736;2023-09-12T06:30:55;21.30;99.90
28484;DHT22;15704;48.834;8.736;2023-09-12T06:33:25;21.40;99.90
28484;DHT22;15704;48.834;8.736;2023-09-12T06:35:52;21.40;99.90
28484;DHT22;15704;48.834;8.736;2023-09-12T06:38:22;21.40;99.90
28484;DHT22;15704;48.834;8.736;2023-09-12T06:40:49;21.40;99.90
28484;DHT22;15704;48.834;8.736;2023-09-12T06:43:16;21.40;99.90
28484;DHT22;15704;48.834;8.736;2023-09-12T06:45:43;21.40;99.90
28484;DHT22;15704;48.834;8.736;2023-09-12T06:48:10;21.40;99.90
28484;DHT22;15704;48.834;8.736;2023-09-12T06:50:37;21.50;99.90
28484;DHT22;15704;48.834;8.736;2023-09-12T06:53:05;21.40;99.90
28484;DHT22;15704;48.834;8.736;2023-09-12T06:55:36;21.40;99.90
28484;DHT22;15704;48.834;8.736;2023-09-12T06:58:03;21.40;99.90
28484;DHT22;15704;48.834;8.736;2023-09-12T07:00:30;21.50;99.90
28484;DHT22;15704;48.834;8.736;2023-09-12T07:02:58;21.60;99.90
28484;DHT22;15704;48.834;8.736;2023-09-12T07:05:25;21.80;99.90
28484;DHT22;15704;48.834;8.736;2023-09-12T07:07:52;22.00;99.90
28484;DHT22;15704;48.834;8.736;2023-09-12T07:10:19;22.20;99.90
28484;DHT22;15704;48.834;8.736;2023-09-12T07:12:52;22.40;99.90
28484;DHT22;15704;48.834;8.736;2023-09-12T07:15:19;22.50;99.90
28484;DHT22;15704;48.834;8.736;2023-09-12T07:17:46;22.70;99.90
28484;DHT22;15704;48.834;8.736;2023-09-12T07:20:14;22.80;99.90
28484;DHT22;15704;48.834;8.736;2023-09-12T07:22:42;22.90;99.90
28484;DHT22;15704;48.834;8.736;2023-09-12T07:25:09;23.20;99.90
28484;DHT22;15704;48.834;8.736;2023-09-12T07:27:38;23.40;99.90
28484;DHT22;15704;48.834;8.736;2023-09-12T07:30:06;23.50;99.90
28484;DHT22;15704;48.834;8.736;2023-09-12T07:32:33;23.70;99.90
28484;DHT22;15704;48.834;8.736;2023-09-12T07:35:00;23.90;99.90
28484;DHT22;15704;48.834;8.736;2023-09-12T07:37:26;23.80;99.90
28484;DHT22;15704;48.834;8.736;2023-09-12T07:39:53;23.90;99.90
28484;DHT22;15704;48.834;8.736;2023-09-12T07:42:23;24.00;99.90
28484;DHT22;15704;48.834;8.736;2023-09-12T07:44:50;24.20;99.90
28484;DHT22;15704;48.834;8.736;2023-09-12T07:47:18;24.30;99.90
28484;DHT22;15704;48.834;8.736;2023-09-12T07:49:45;24.30;99.90
28484;DHT22;15704;48.834;8.736;2023-09-12T07:52:12;24.10;99.90
28484;DHT22;15704;48.834;8.736;2023-09-12T07:54:39;24.30;99.90
28484;DHT22;15704;48.834;8.736;2023-09-12T07:57:05;24.30;99.90
28484;DHT22;15704;48.834;8.736;2023-09-12T07:59:33;24.40;99.90
28484;DHT22;15704;48.834;8.736;2023-09-12T08:02:00;24.50;99.90
28484;DHT22;15704;48.834;8.736;2023-09-12T08:04:26;24.40;99.90
28484;DHT22;15704;48.834;8.736;2023-09-12T08:06:53;24.10;99.90
28484;DHT22;15704;48.834;8.736;2023-09-12T08:09:47;24.00;99.90
28484;DHT22;15704;48.834;8.736;2023-09-12T08:12:10;24.00;99.90
28484;DHT22;15704;48.834;8.736;2023-09-12T08:14:37;24.00;99.90
28484;DHT22;15704;48.834;8.736;2023-09-12T08:17:04;24.00;99.90
28484;DHT22;15704;48.834;8.736;2023-09-12T08:19:32;24.20;99.90
28484;DHT22;15704;48.834;8.736;2023-09-12T08:21:59;24.30;99.90
28484;DHT22;15704;48.834;8.736;2023-09-12T08:24:26;24.40;99.90
28484;DHT22;15704;48.834;8.736;2023-09-12T08:26:52;24.40;99.90
28484;DHT22;15704;48.834;8.736;2023-09-12T08:29:21;24.50;99.90
28484;DHT22;15704;48.834;8.736;2023-09-12T08:31:47;24.50;99.90
28484;DHT22;15704;48.834;8.736;2023-09-12T08:34:14;24.50;99.90
28484;DHT22;15704;48.834;8.736;2023-09-12T08:36:41;24.60;99.90
28484;DHT22;15704;48.834;8.736;2023-09-12T08:39:13;24.70;99.90
28484;DHT22;15704;48.834;8.736;2023-09-12T08:41:40;24.70;99.90
28484;DHT22;15704;48.834;8.736;2023-09-12T08:44:07;24.80;99.90
28484;DHT22;15704;48.834;8.736;2023-09-12T08:46:34;24.80;99.90
28484;DHT22;15704;48.834;8.736;2023-09-12T08:49:01;25.00;99.90
28484;DHT22;15704;48.834;8.736;2023-09-12T08:51:29;25.00;99.90
28484;DHT22;15704;48.834;8.736;2023-09-12T08:53:56;25.20;99.90
28484;DHT22;15704;48.834;8.736;2023-09-12T08:56:23;25.30;99.90
28484;DHT22;15704;48.834;8.736;2023-09-12T08:58:51;25.30;99.90
28484;DHT22;15704;48.834;8.736;2023-09-12T09:01:19;25.30;99.90
28484;DHT22;15704;48.834;8.736;2023-09-12T09:03:47;25.60;99.90
28484;DHT22;15704;48.834;8.736;2023-09-12T09:06:16;25.70;99.90
28484;DHT22;15704;48.834;8.736;2023-09-12T09:08:44;25.70;99.90
28484;DHT22;15704;48.834;8.736;2023-09-12T09:11:11;25.80;99.90
28484;DHT22;15704;48.834;8.736;2023-09-12T09:13:38;25.70;99.90
28484;DHT22;15704;48.834;8.736;2023-09-12T09:21:22;25.90;99.90
28484;DHT22;15704;48.834;8.736;2023-09-12T09:23:54;26.00;99.90
28484;DHT22;15704;48.834;8.736;2023-09-12T09:26:22;26.20;99.90
28484;DHT22;15704;48.834;8.736;2023-09-12T09:29:06;26.10;99.90
28484;DHT22;15704;48.834;8.736;2023-09-12T09:31:33;26.40;99.90
28484;DHT22;15704;48.834;8.736;2023-09-12T09:34:01;26.30;99.70
28484;DHT22;15704;48.834;8.736;2023-09-12T09:36:31;26.30;99.90
28484;DHT22;15704;48.834;8.736;2023-09-12T09:38:58;26.30;99.70
28484;DHT22;15704;48.834;8.736;2023-09-12T09:41:26;26.40;99.70
28484;DHT22;15704;48.834;8.736;2023-09-12T09:43:53;26.40;99.30
28484;DHT22;15704;48.834;8.736;2023-09-12T09:46:20;26.60;99.90
28484;DHT22;15704;48.834;8.736;2023-09-12T09:48:51;26.70;99.90
28484;DHT22;15704;48.834;8.736;2023-09-12T09:51:19;26.70;99.80
28484;DHT22;15704;48.834;8.736;2023-09-12T09:53:46;26.70;99.40
28484;DHT22;15704;48.834;8.736;2023-09-12T09:56:16;26.90;99.30
28484;DHT22;15704;48.834;8.736;2023-09-12T09:58:55;27.10;99.40
28484;DHT22;15704;48.834;8.736;2023-09-12T10:01:23;27.30;99.00
28484;DHT22;15704;48.834;8.736;2023-09-12T10:03:53;27.30;98.60
28484;DHT22;15704;48.834;8.736;2023-09-12T10:06:23;27.70;98.10
28484;DHT22;15704;48.834;8.736;2023-09-12T10:08:52;28.10;97.40
28484;DHT22;15704;48.834;8.736;2023-09-12T10:11:22;28.30;96.90
28484;DHT22;15704;48.834;8.736;2023-09-12T10:13:56;28.30;97.10
28484;DHT22;15704;48.834;8.736;2023-09-12T10:16:25;28.50;96.10
28484;DHT22;15704;48.834;8.736;2023-09-12T10:22:37;28.40;96.20
28484;DHT22;15704;48.834;8.736;2023-09-12T10:24:37;28.00;96.40
28484;DHT22;15704;48.834;8.736;2023-09-12T10:27:06;28.20;96.60
28484;DHT22;15704;48.834;8.736;2023-09-12T10:29:34;28.20;96.20
28484;DHT22;15704;48.834;8.736;2023-09-12T10:32:01;28.20;96.10
28484;DHT22;15704;48.834;8.736;2023-09-12T10:34:30;28.20;95.60
28484;DHT22;15704;48.834;8.736;2023-09-12T10:36:58;28.10;96.10
28484;DHT22;15704;48.834;8.736;2023-09-12T10:39:32;27.80;95.50
28484;DHT22;15704;48.834;8.736;2023-09-12T10:41:59;27.90;95.10
28484;DHT22;15704;48.834;8.736;2023-09-12T10:44:31;27.90;95.40
28484;DHT22;15704;48.834;8.736;2023-09-12T10:46:58;28.00;95.70
28484;DHT22;15704;48.834;8.736;2023-09-12T10:49:25;27.80;95.40
28484;DHT22;15704;48.834;8.736;2023-09-12T10:51:53;27.80;94.90
28484;DHT22;15704;48.834;8.736;2023-09-12T10:54:26;27.70;94.80
28484;DHT22;15704;48.834;8.736;2023-09-12T10:57:06;27.80;94.60
28484;DHT22;15704;48.834;8.736;2023-09-12T10:59:34;27.90;94.80
28484;DHT22;15704;48.834;8.736;2023-09-12T11:05:00;27.70;94.90
28484;DHT22;15704;48.834;8.736;2023-09-12T11:12:44;27.90;94.30
28484;DHT22;15704;48.834;8.736;2023-09-12T11:15:12;27.80;94.00
28484;DHT22;15704;48.834;8.736;2023-09-12T11:17:40;27.60;95.20
28484;DHT22;15704;48.834;8.736;2023-09-12T11:20:08;27.70;94.70
28484;DHT22;15704;48.834;8.736;2023-09-12T11:22:45;27.80;94.40
28484;DHT22;15704;48.834;8.736;2023-09-12T11:25:23;27.90;93.80
28484;DHT22;15704;48.834;8.736;2023-09-12T11:30:18;27.70;93.60
28484;DHT22;15704;48.834;8.736;2023-09-12T11:32:46;27.50;94.00
28484;DHT22;15704;48.834;8.736;2023-09-12T11:35:14;27.30;93.80
28484;DHT22;15704;48.834;8.736;2023-09-12T11:37:57;27.10;93.70
28484;DHT22;15704;48.834;8.736;2023-09-12T11:43:03;27.00;94.40
28484;DHT22;15704;48.834;8.736;2023-09-12T11:45:31;27.20;94.70
28484;DHT22;15704;48.834;8.736;2023-09-12T11:47:59;27.30;93.90
28484;DHT22;15704;48.834;8.736;2023-09-12T11:50:30;27.40;93.80
28484;DHT22;15704;48.834;8.736;2023-09-12T11:53:11;27.70;93.80
28484;DHT22;15704;48.834;8.736;2023-09-12T11:55:42;27.60;92.50
28484;DHT22;15704;48.834;8.736;2023-09-12T11:58:16;27.70;93.00
28484;DHT22;15704;48.834;8.736;2023-09-12T12:00:53;27.80;92.70
28484;DHT22;15704;48.834;8.736;2023-09-12T12:03:23;28.10;92.70
28484;DHT22;15704;48.834;8.736;2023-09-12T12:05:50;28.30;91.90
28484;DHT22;15704;48.834;8.736;2023-09-12T12:08:18;28.40;92.00
28484;DHT22;15704;48.834;8.736;2023-09-12T12:10:52;28.60;91.60
28484;DHT22;15704;48.834;8.736;2023-09-12T12:13:21;28.80;91.50
28484;DHT22;15704;48.834;8.736;2023-09-12T12:15:48;28.70;90.70
28484;DHT22;15704;48.834;8.736;2023-09-12T12:18:15;28.80;91.50
28484;DHT22;15704;48.834;8.736;2023-09-12T12:20:42;29.10;91.40
28484;DHT22;15704;48.834;8.736;2023-09-12T12:23:09;28.80;91.30
28484;DHT22;15704;48.834;8.736;2023-09-12T12:25:36;29.00;91.20
28484;DHT22;15704;48.834;8.736;2023-09-12T12:28:03;28.80;92.10
28484;DHT22;15704;48.834;8.736;2023-09-12T12:30:32;28.90;92.70
28484;DHT22;15704;48.834;8.736;2023-09-12T12:33:01;28.90;92.80
28484;DHT22;15704;48.834;8.736;2023-09-12T12:35:49;28.80;92.30
28484;DHT22;15704;48.834;8.736;2023-09-12T12:38:22;28.70;92.30
28484;DHT22;15704;48.834;8.736;2023-09-12T12:40:48;28.80;92.00
28484;DHT22;15704;48.834;8.736;2023-09-12T12:43:19;28.90;92.70
28484;DHT22;15704;48.834;8.736;2023-09-12T12:45:54;29.10;92.60
28484;DHT22;15704;48.834;8.736;2023-09-12T12:48:35;29.20;92.10
28484;DHT22;15704;48.834;8.736;2023-09-12T12:51:14;29.20;91.20
28484;DHT22;15704;48.834;8.736;2023-09-12T12:53:46;29.20;91.30
28484;DHT22;15704;48.834;8.736;2023-09-12T12:56:27;29.20;90.90
28484;DHT22;15704;48.834;8.736;2023-09-12T12:59:01;29.40;91.30
28484;DHT22;15704;48.834;8.736;2023-09-12T13:01:37;29.40;92.20
28484;DHT22;15704;48.834;8.736;2023-09-12T13:04:06;29.40;90.80
28484;DHT22;15704;48.834;8.736;2023-09-12T13:06:34;29.30;90.30
28484;DHT22;15704;48.834;8.736;2023-09-12T13:09:05;28.90;90.00
28484;DHT22;15704;48.834;8.736;2023-09-12T13:11:33;28.90;90.20
28484;DHT22;15704;48.834;8.736;2023-09-12T13:14:01;28.70;90.20
28484;DHT22;15704;48.834;8.736;2023-09-12T13:16:29;28.90;90.50
28484;DHT22;15704;48.834;8.736;2023-09-12T13:18:56;28.90;88.40
28484;DHT22;15704;48.834;8.736;2023-09-12T13:21:23;28.80;88.60
28484;DHT22;15704;48.834;8.736;2023-09-12T13:23:52;28.70;89.80
28484;DHT22;15704;48.834;8.736;2023-09-12T13:26:19;28.70;89.80
28484;DHT22;15704;48.834;8.736;2023-09-12T13:28:46;28.50;88.10
28484;DHT22;15704;48.834;8.736;2023-09-12T13:31:13;28.70;88.10
28484;DHT22;15704;48.834;8.736;2023-09-12T13:33:39;28.40;86.20
28484;DHT22;15704;48.834;8.736;2023-09-12T13:36:09;28.50;86.90
28484;DHT22;15704;48.834;8.736;2023-09-12T13:38:36;28.60;86.10
28484;DHT22;15704;48.834;8.736;2023-09-12T13:41:02;28.70;86.30
28484;DHT22;15704;48.834;8.736;2023-09-12T13:43:29;28.80;86.90
28484;DHT22;15704;48.834;8.736;2023-09-12T13:45:56;28.80;86.70
28484;DHT22;15704;48.834;8.736;2023-09-12T13:48:23;29.00;87.00
28484;DHT22;15704;48.834;8.736;2023-09-12T13:50:50;28.90;84.70
28484;DHT22;15704;48.834;8.736;2023-09-12T13:53:17;28.70;85.10
28484;DHT22;15704;48.834;8.736;2023-09-12T13:55:44;28.80;85.10
28484;DHT22;15704;48.834;8.736;2023-09-12T13:58:30;28.80;84.90
28484;DHT22;15704;48.834;8.736;2023-09-12T14:01:12;28.80;85.60
28484;DHT22;15704;48.834;8.736;2023-09-12T14:03:56;28.80;86.80
28484;DHT22;15704;48.834;8.736;2023-09-12T14:06:24;28.90;85.60
28484;DHT22;15704;48.834;8.736;2023-09-12T14:08:52;29.00;85.60
28484;DHT22;15704;48.834;8.736;2023-09-12T14:11:20;29.00;84.50
28484;DHT22;15704;48.834;8.736;2023-09-12T14:13:59;29.10;85.60
28484;DHT22;15704;48.834;8.736;2023-09-12T14:16:41;29.10;85.80
28484;DHT22;15704;48.834;8.736;2023-09-12T14:19:12;29.10;84.80
28484;DHT22;15704;48.834;8.736;2023-09-12T14:21:40;29.00;86.70
28484;DHT22;15704;48.834;8.736;2023-09-12T14:24:07;28.90;87.30
28484;DHT22;15704;48.834;8.736;2023-09-12T14:26:36;29.00;86.20
28484;DHT22;15704;48.834;8.736;2023-09-12T14:29:04;28.90;84.30
28484;DHT22;15704;48.834;8.736;2023-09-12T14:31:32;28.50;86.00
28484;DHT22;15704;48.834;8.736;2023-09-12T14:33:58;28.40;86.20
28484;DHT22;15704;48.834;8.736;2023-09-12T14:36:25;28.60;87.10
28484;DHT22;15704;48.834;8.736;2023-09-12T14:38:52;28.80;87.80
28484;DHT22;15704;48.834;8.736;2023-09-12T14:41:19;28.90;87.70
28484;DHT22;15704;48.834;8.736;2023-09-12T14:43:46;28.90;87.10
28484;DHT22;15704;48.834;8.736;2023-09-12T14:46:12;28.90;86.40
28484;DHT22;15704;48.834;8.736;2023-09-12T14:48:39;28.80;87.40
28484;DHT22;15704;48.834;8.736;2023-09-12T14:51:12;28.90;87.80
28484;DHT22;15704;48.834;8.736;2023-09-12T14:53:52;29.00;86.60
28484;DHT22;15704;48.834;8.736;2023-09-12T14:56:19;29.00;87.50
28484;DHT22;15704;48.834;8.736;2023-09-12T14:58:45;29.00;85.80
28484;DHT22;15704;48.834;8.736;2023-09-12T15:01:12;29.10;86.40
28484;DHT22;15704;48.834;8.736;2023-09-12T15:03:39;29.20;87.00
28484;DHT22;15704;48.834;8.736;2023-09-12T15:06:06;29.20;86.50
28484;DHT22;15704;48.834;8.736;2023-09-12T15:08:33;28.80;85.40
28484;DHT22;15704;48.834;8.736;2023-09-12T15:11:03;28.80;86.90
28484;DHT22;15704;48.834;8.736;2023-09-12T15:13:30;28.70;87.20
28484;DHT22;15704;48.834;8.736;2023-09-12T15:15:56;28.70;87.10
28484;DHT22;15704;48.834;8.736;2023-09-12T15:18:23;28.60;88.40
28484;DHT22;15704;48.834;8.736;2023-09-12T15:20:52;28.50;88.50
28484;DHT22;15704;48.834;8.736;2023-09-12T15:23:19;28.50;86.60
28484;DHT22;15704;48.834;8.736;2023-09-12T15:25:50;28.70;86.90
28484;DHT22;15704;48.834;8.736;2023-09-12T15:28:17;28.60;87.60
28484;DHT22;15704;48.834;8.736;2023-09-12T15:30:44;28.50;86.90
28484;DHT22;15704;48.834;8.736;2023-09-12T15:33:11;28.50;87.50
28484;DHT22;15704;48.834;8.736;2023-09-12T15:35:38;28.40;87.20
28484;DHT22;15704;48.834;8.736;2023-09-12T15:38:05;28.40;87.60
28484;DHT22;15704;48.834;8.736;2023-09-12T15:40:33;28.50;86.50
28484;DHT22;15704;48.834;8.736;2023-09-12T15:43:00;28.50;86.20
28484;DHT22;15704;48.834;8.736;2023-09-12T15:45:44;28.50;86.60
28484;DHT22;15704;48.834;8.736;2023-09-12T15:48:17;28.60;87.30
28484;DHT22;15704;48.834;8.736;2023-09-12T15:50:44;28.50;86.90
28484;DHT22;15704;48.834;8.736;2023-09-12T15:53:10;28.50;89.60
28484;DHT22;15704;48.834;8.736;2023-09-12T15:55:37;28.50;88.10
28484;DHT22;15704;48.834;8.736;2023-09-12T15:58:04;28.50;88.90
28484;DHT22;15704;48.834;8.736;2023-09-12T16:00:31;28.30;87.50
28484;DHT22;15704;48.834;8.736;2023-09-12T16:02:58;28.20;87.80
28484;DHT22;15704;48.834;8.736;2023-09-12T16:05:24;28.20;88.60
28484;DHT22;15704;48.834;8.736;2023-09-12T16:07:51;28.20;88.40
28484;DHT22;15704;48.834;8.736;2023-09-12T16:10:19;28.40;87.00
28484;DHT22;15704;48.834;8.736;2023-09-12T16:12:45;28.40;87.40
28484;DHT22;15704;48.834;8.736;2023-09-12T16:15:13;28.40;87.20